sensor_id;sensor_type;location;lat;lon;timestamp;P1;durP1;ratioP1;P2;durP2;ratioP2
1471;SDS011;963;42.644;23.336;2024-02-15T00:01:28;9.60;;;7.17;;
1471;SDS011;963;42.644;23.336;2024-02-15T00:03:54;7.97;;;6.97;;
1471;SDS011;963;42.644;23.336;2024-02-15T00:06:20;7.90;;;6.60;;
1471;SDS011;963;42.644;23.336;2024-02-15T00:08:45;9.13;;;7.40;;
1471;SDS011;963;42.644;23.336;2024-02-15T00:11:13;8.03;;;6.70;;
1471;SDS011;963;42.644;23.336;2024-02-15T00:13:39;8.30;;;6.13;;
1471;SDS011;963;42.644;23.336;2024-02-15T00:16:07;8.53;;;6.73;;
1471;SDS011;963;42.644;23.336;2024-02-15T00:18:33;6.90;;;6.20;;
1471;SDS011;963;42.644;23.336;2024-02-15T00:20:59;8.97;;;7.37;;
1471;SDS011;963;42.644;23.336;2024-02-15T00:23:25;8.13;;;7.03;;
1471;SDS011;963;42.644;23.336;2024-02-15T00:25:50;8.93;;;7.47;;
1471;SDS011;963;42.644;23.336;2024-02-15T00:28:15;8.87;;;6.60;;
1471;SDS011;963;42.644;23.336;2024-02-15T00:30:41;9.67;;;6.47;;
1471;SDS011;963;42.644;23.336;2024-02-15T00:33:07;8.43;;;6.70;;
1471;SDS011;963;42.644;23.336;2024-02-15T00:35:32;8.10;;;6.77;;
1471;SDS011;963;42.644;23.336;2024-02-15T00:37:58;9.13;;;7.10;;
1471;SDS011;963;42.644;23.336;2024-02-15T00:40:23;8.33;;;7.43;;
1471;SDS011;963;42.644;23.336;2024-02-15T00:42:48;8.37;;;6.73;;
1471;SDS011;963;42.644;23.336;2024-02-15T00:45:14;7.50;;;6.63;;
1471;SDS011;963;42.644;23.336;2024-02-15T00:47:39;7.57;;;6.37;;
1471;SDS011;963;42.644;23.336;2024-02-15T00:50:07;9.57;;;6.97;;
1471;SDS011;963;42.644;23.336;2024-02-15T00:52:34;8.63;;;7.27;;
1471;SDS011;963;42.644;23.336;2024-02-15T00:54:59;15.10;;;7.87;;
1471;SDS011;963;42.644;23.336;2024-02-15T00:57:24;8.10;;;6.10;;
1471;SDS011;963;42.644;23.336;2024-02-15T00:59:50;9.47;;;7.40;;
1471;SDS011;963;42.644;23.336;2024-02-15T01:02:17;11.60;;;6.40;;
1471;SDS011;963;42.644;23.336;2024-02-15T01:04:43;8.40;;;6.17;;
1471;SDS011;963;42.644;23.336;2024-02-15T01:07:10;7.60;;;6.00;;
1471;SDS011;963;42.644;23.336;2024-02-15T01:09:36;8.23;;;6.27;;
1471;SDS011;963;42.644;23.336;2024-02-15T01:12:01;8.50;;;6.60;;
1471;SDS011;963;42.644;23.336;2024-02-15T01:14:28;9.30;;;7.30;;
1471;SDS011;963;42.644;23.336;2024-02-15T01:16:55;7.23;;;6.57;;
1471;SDS011;963;42.644;23.336;2024-02-15T01:19:21;8.00;;;6.57;;
1471;SDS011;963;42.644;23.336;2024-02-15T01:21:49;12.57;;;6.77;;
1471;SDS011;963;42.644;23.336;2024-02-15T01:24:14;8.50;;;6.47;;
1471;SDS011;963;42.644;23.336;2024-02-15T01:26:40;10.17;;;6.40;;
1471;SDS011;963;42.644;23.336;2024-02-15T01:29:08;10.30;;;6.30;;
1471;SDS011;963;42.644;23.336;2024-02-15T01:31:37;7.57;;;6.07;;
1471;SDS011;963;42.644;23.336;2024-02-15T01:34:09;9.20;;;6.70;;
1471;SDS011;963;42.644;23.336;2024-02-15T01:36:35;9.23;;;6.53;;
1471;SDS011;963;42.644;23.336;2024-02-15T01:39:00;8.23;;;6.63;;
1471;SDS011;963;42.644;23.336;2024-02-15T01:41:27;10.70;;;6.80;;
1471;SDS011;963;42.644;23.336;2024-02-15T01:43:52;9.00;;;7.53;;
1471;SDS011;963;42.644;23.336;2024-02-15T01:46:18;10.50;;;6.80;;
1471;SDS011;963;42.644;23.336;2024-02-15T01:48:46;8.90;;;7.03;;
1471;SDS011;963;42.644;23.336;2024-02-15T01:51:12;8.57;;;7.30;;
1471;SDS011;963;42.644;23.336;2024-02-15T01:53:40;7.50;;;6.20;;
1471;SDS011;963;42.644;23.336;2024-02-15T01:56:07;8.13;;;7.10;;
1471;SDS011;963;42.644;23.336;2024-02-15T01:58:33;8.97;;;7.80;;
1471;SDS011;963;42.644;23.336;2024-02-15T02:00:59;8.80;;;6.80;;
1471;SDS011;963;42.644;23.336;2024-02-15T02:03:26;10.00;;;7.27;;
1471;SDS011;963;42.644;23.336;2024-02-15T02:05:51;9.60;;;6.13;;
1471;SDS011;963;42.644;23.336;2024-02-15T02:08:17;8.03;;;7.13;;
1471;SDS011;963;42.644;23.336;2024-02-15T02:10:43;10.10;;;6.93;;
1471;SDS011;963;42.644;23.336;2024-02-15T02:13:10;8.77;;;6.83;;
1471;SDS011;963;42.644;23.336;2024-02-15T02:15:36;8.07;;;7.30;;
1471;SDS011;963;42.644;23.336;2024-02-15T02:18:02;9.10;;;7.07;;
1471;SDS011;963;42.644;23.336;2024-02-15T02:20:31;8.50;;;6.57;;
1471;SDS011;963;42.644;23.336;2024-02-15T02:23:15;9.33;;;6.70;;
1471;SDS011;963;42.644;23.336;2024-02-15T02:25:43;11.67;;;7.53;;
1471;SDS011;963;42.644;23.336;2024-02-15T02:28:11;8.57;;;7.33;;
1471;SDS011;963;42.644;23.336;2024-02-15T02:30:38;9.80;;;7.30;;
1471;SDS011;963;42.644;23.336;2024-02-15T02:33:09;9.13;;;7.20;;
1471;SDS011;963;42.644;23.336;2024-02-15T02:35:35;12.27;;;7.33;;
1471;SDS011;963;42.644;23.336;2024-02-15T02:38:01;9.10;;;7.20;;
1471;SDS011;963;42.644;23.336;2024-02-15T02:40:27;10.23;;;7.20;;
1471;SDS011;963;42.644;23.336;2024-02-15T02:45:21;9.60;;;7.10;;
1471;SDS011;963;42.644;23.336;2024-02-15T02:47:50;9.53;;;6.87;;
1471;SDS011;963;42.644;23.336;2024-02-15T02:50:16;13.60;;;6.90;;
1471;SDS011;963;42.644;23.336;2024-02-15T02:52:42;8.37;;;6.93;;
1471;SDS011;963;42.644;23.336;2024-02-15T02:55:08;9.90;;;7.00;;
1471;SDS011;963;42.644;23.336;2024-02-15T02:57:34;7.77;;;6.43;;
1471;SDS011;963;42.644;23.336;2024-02-15T03:00:03;8.73;;;7.63;;
1471;SDS011;963;42.644;23.336;2024-02-15T03:02:33;10.47;;;7.53;;
1471;SDS011;963;42.644;23.336;2024-02-15T03:05:02;9.37;;;7.10;;
1471;SDS011;963;42.644;23.336;2024-02-15T03:07:29;9.03;;;8.10;;
1471;SDS011;963;42.644;23.336;2024-02-15T03:09:57;10.00;;;7.40;;
1471;SDS011;963;42.644;23.336;2024-02-15T03:12:23;8.17;;;6.73;;
1471;SDS011;963;42.644;23.336;2024-02-15T03:14:48;8.93;;;7.03;;
1471;SDS011;963;42.644;23.336;2024-02-15T03:17:14;10.10;;;8.03;;
1471;SDS011;963;42.644;23.336;2024-02-15T03:19:39;8.70;;;7.07;;
1471;SDS011;963;42.644;23.336;2024-02-15T03:22:05;8.90;;;8.00;;
1471;SDS011;963;42.644;23.336;2024-02-15T03:24:31;8.97;;;7.70;;
1471;SDS011;963;42.644;23.336;2024-02-15T03:26:56;12.93;;;8.17;;
1471;SDS011;963;42.644;23.336;2024-02-15T03:29:22;12.10;;;8.50;;
1471;SDS011;963;42.644;23.336;2024-02-15T03:31:47;9.57;;;7.50;;
1471;SDS011;963;42.644;23.336;2024-02-15T03:34:14;13.50;;;8.63;;
1471;SDS011;963;42.644;23.336;2024-02-15T03:36:40;9.37;;;7.50;;
1471;SDS011;963;42.644;23.336;2024-02-15T03:39:06;11.30;;;8.70;;
1471;SDS011;963;42.644;23.336;2024-02-15T03:41:33;14.23;;;9.10;;
1471;SDS011;963;42.644;23.336;2024-02-15T03:43:58;11.93;;;8.73;;
1471;SDS011;963;42.644;23.336;2024-02-15T03:46:25;12.73;;;8.13;;
1471;SDS011;963;42.644;23.336;2024-02-15T03:48:50;9.60;;;8.37;;
1471;SDS011;963;42.644;23.336;2024-02-15T03:51:16;9.77;;;7.40;;
1471;SDS011;963;42.644;23.336;2024-02-15T03:53:43;11.77;;;8.93;;
1471;SDS011;963;42.644;23.336;2024-02-15T03:56:09;10.60;;;7.67;;
1471;SDS011;963;42.644;23.336;2024-02-15T03:58:34;13.20;;;8.87;;
1471;SDS011;963;42.644;23.336;2024-02-15T04:01:01;12.23;;;7.97;;
1471;SDS011;963;42.644;23.336;2024-02-15T04:03:29;10.97;;;8.30;;
1471;SDS011;963;42.644;23.336;2024-02-15T04:05:57;10.00;;;8.03;;
1471;SDS011;963;42.644;23.336;2024-02-15T04:08:22;10.40;;;8.00;;
1471;SDS011;963;42.644;23.336;2024-02-15T04:10:48;11.87;;;9.00;;
1471;SDS011;963;42.644;23.336;2024-02-15T04:13:14;12.00;;;8.23;;
1471;SDS011;963;42.644;23.336;2024-02-15T04:15:39;10.57;;;7.67;;
1471;SDS011;963;42.644;23.336;2024-02-15T04:18:06;11.07;;;8.27;;
1471;SDS011;963;42.644;23.336;2024-02-15T04:20:33;10.20;;;7.63;;
1471;SDS011;963;42.644;23.336;2024-02-15T04:22:58;11.83;;;8.50;;
1471;SDS011;963;42.644;23.336;2024-02-15T04:25:24;10.43;;;7.60;;
1471;SDS011;963;42.644;23.336;2024-02-15T04:27:52;8.90;;;7.40;;
1471;SDS011;963;42.644;23.336;2024-02-15T04:30:18;12.93;;;9.00;;
1471;SDS011;963;42.644;23.336;2024-02-15T04:32:45;10.90;;;8.33;;
1471;SDS011;963;42.644;23.336;2024-02-15T04:35:11;9.50;;;7.97;;
1471;SDS011;963;42.644;23.336;2024-02-15T04:37:37;12.03;;;8.50;;
1471;SDS011;963;42.644;23.336;2024-02-15T04:40:03;9.33;;;7.87;;
1471;SDS011;963;42.644;23.336;2024-02-15T04:42:37;9.57;;;7.77;;
1471;SDS011;963;42.644;23.336;2024-02-15T04:45:04;10.13;;;7.90;;
1471;SDS011;963;42.644;23.336;2024-02-15T04:47:33;12.50;;;8.30;;
1471;SDS011;963;42.644;23.336;2024-02-15T04:49:59;11.70;;;9.17;;
1471;SDS011;963;42.644;23.336;2024-02-15T04:52:24;9.63;;;7.57;;
1471;SDS011;963;42.644;23.336;2024-02-15T04:54:50;11.77;;;8.07;;
1471;SDS011;963;42.644;23.336;2024-02-15T04:57:15;11.10;;;8.40;;
1471;SDS011;963;42.644;23.336;2024-02-15T04:59:42;11.17;;;8.10;;
1471;SDS011;963;42.644;23.336;2024-02-15T05:02:12;12.13;;;8.00;;
1471;SDS011;963;42.644;23.336;2024-02-15T05:04:37;13.37;;;7.70;;
1471;SDS011;963;42.644;23.336;2024-02-15T05:07:03;9.50;;;8.07;;
1471;SDS011;963;42.644;23.336;2024-02-15T05:09:29;9.43;;;7.53;;
1471;SDS011;963;42.644;23.336;2024-02-15T05:11:56;9.30;;;8.00;;
1471;SDS011;963;42.644;23.336;2024-02-15T05:14:22;10.53;;;7.37;;
1471;SDS011;963;42.644;23.336;2024-02-15T05:16:48;12.53;;;8.60;;
1471;SDS011;963;42.644;23.336;2024-02-15T05:19:15;10.80;;;7.60;;
1471;SDS011;963;42.644;23.336;2024-02-15T05:21:41;13.73;;;8.40;;
1471;SDS011;963;42.644;23.336;2024-02-15T05:24:10;11.57;;;8.07;;
1471;SDS011;963;42.644;23.336;2024-02-15T05:26:38;9.33;;;6.87;;
1471;SDS011;963;42.644;23.336;2024-02-15T05:29:04;13.53;;;9.77;;
1471;SDS011;963;42.644;23.336;2024-02-15T05:31:30;11.77;;;8.00;;
1471;SDS011;963;42.644;23.336;2024-02-15T05:33:55;10.63;;;7.37;;
1471;SDS011;963;42.644;23.336;2024-02-15T05:36:21;11.53;;;7.87;;
1471;SDS011;963;42.644;23.336;2024-02-15T05:38:48;12.70;;;7.90;;
1471;SDS011;963;42.644;23.336;2024-02-15T05:41:17;11.20;;;8.00;;
1471;SDS011;963;42.644;23.336;2024-02-15T05:43:43;8.63;;;7.37;;
1471;SDS011;963;42.644;23.336;2024-02-15T05:46:09;10.80;;;7.97;;
1471;SDS011;963;42.644;23.336;2024-02-15T05:48:36;13.47;;;8.07;;
1471;SDS011;963;42.644;23.336;2024-02-15T05:51:05;10.47;;;7.77;;
1471;SDS011;963;42.644;23.336;2024-02-15T05:53:32;11.80;;;7.87;;
1471;SDS011;963;42.644;23.336;2024-02-15T05:56:00;10.90;;;7.30;;
1471;SDS011;963;42.644;23.336;2024-02-15T05:58:29;11.30;;;8.00;;
1471;SDS011;963;42.644;23.336;2024-02-15T06:00:54;13.37;;;8.43;;
1471;SDS011;963;42.644;23.336;2024-02-15T06:03:20;11.13;;;7.87;;
1471;SDS011;963;42.644;23.336;2024-02-15T06:05:51;13.20;;;8.00;;
1471;SDS011;963;42.644;23.336;2024-02-15T06:08:16;9.73;;;7.70;;
1471;SDS011;963;42.644;23.336;2024-02-15T06:10:42;11.63;;;7.70;;
1471;SDS011;963;42.644;23.336;2024-02-15T06:13:08;8.93;;;7.30;;
1471;SDS011;963;42.644;23.336;2024-02-15T06:15:36;11.60;;;7.40;;
1471;SDS011;963;42.644;23.336;2024-02-15T06:18:02;10.77;;;8.33;;
1471;SDS011;963;42.644;23.336;2024-02-15T06:20:33;12.73;;;7.70;;
1471;SDS011;963;42.644;23.336;2024-02-15T06:22:59;9.93;;;8.10;;
1471;SDS011;963;42.644;23.336;2024-02-15T06:25:24;9.80;;;8.13;;
1471;SDS011;963;42.644;23.336;2024-02-15T06:27:50;10.87;;;7.37;;
1471;SDS011;963;42.644;23.336;2024-02-15T06:30:23;10.77;;;8.10;;
1471;SDS011;963;42.644;23.336;2024-02-15T06:33:07;12.30;;;8.47;;
1471;SDS011;963;42.644;23.336;2024-02-15T06:35:51;10.50;;;8.03;;
1471;SDS011;963;42.644;23.336;2024-02-15T06:38:35;10.93;;;7.67;;
1471;SDS011;963;42.644;23.336;2024-02-15T06:41:19;11.37;;;7.50;;
1471;SDS011;963;42.644;23.336;2024-02-15T06:43:44;10.67;;;8.10;;
1471;SDS011;963;42.644;23.336;2024-02-15T06:46:09;11.53;;;8.03;;
1471;SDS011;963;42.644;23.336;2024-02-15T06:48:36;9.13;;;7.40;;
1471;SDS011;963;42.644;23.336;2024-02-15T06:51:02;11.87;;;7.70;;
1471;SDS011;963;42.644;23.336;2024-02-15T06:53:28;12.70;;;7.83;;
1471;SDS011;963;42.644;23.336;2024-02-15T06:55:55;11.23;;;8.63;;
1471;SDS011;963;42.644;23.336;2024-02-15T06:58:21;13.73;;;8.30;;
1471;SDS011;963;42.644;23.336;2024-02-15T07:00:47;11.27;;;8.10;;
1471;SDS011;963;42.644;23.336;2024-02-15T07:03:15;13.23;;;8.20;;
1471;SDS011;963;42.644;23.336;2024-02-15T07:05:41;11.67;;;7.97;;
1471;SDS011;963;42.644;23.336;2024-02-15T07:08:07;13.03;;;8.13;;
1471;SDS011;963;42.644;23.336;2024-02-15T07:10:37;10.77;;;7.60;;
1471;SDS011;963;42.644;23.336;2024-02-15T07:13:04;9.73;;;7.67;;
1471;SDS011;963;42.644;23.336;2024-02-15T07:15:29;10.40;;;8.00;;
1471;SDS011;963;42.644;23.336;2024-02-15T07:17:56;12.90;;;8.23;;
1471;SDS011;963;42.644;23.336;2024-02-15T07:20:23;10.50;;;7.30;;
1471;SDS011;963;42.644;23.336;2024-02-15T07:22:48;10.50;;;7.93;;
1471;SDS011;963;42.644;23.336;2024-02-15T07:25:13;11.93;;;7.27;;
1471;SDS011;963;42.644;23.336;2024-02-15T07:27:39;12.33;;;7.87;;
1471;SDS011;963;42.644;23.336;2024-02-15T07:30:05;10.07;;;7.40;;
1471;SDS011;963;42.644;23.336;2024-02-15T07:32:33;11.70;;;7.40;;
1471;SDS011;963;42.644;23.336;2024-02-15T07:35:00;9.63;;;6.77;;
1471;SDS011;963;42.644;23.336;2024-02-15T07:37:26;8.93;;;7.33;;
1471;SDS011;963;42.644;23.336;2024-02-15T07:39:52;12.23;;;7.30;;
1471;SDS011;963;42.644;23.336;2024-02-15T07:42:17;10.70;;;7.00;;
1471;SDS011;963;42.644;23.336;2024-02-15T07:44:43;10.40;;;6.90;;
1471;SDS011;963;42.644;23.336;2024-02-15T07:47:08;12.10;;;7.10;;
1471;SDS011;963;42.644;23.336;2024-02-15T07:49:35;9.80;;;7.13;;
1471;SDS011;963;42.644;23.336;2024-02-15T07:52:01;13.90;;;7.70;;
1471;SDS011;963;42.644;23.336;2024-02-15T07:54:29;11.73;;;6.97;;
1471;SDS011;963;42.644;23.336;2024-02-15T07:56:55;8.33;;;6.63;;
1471;SDS011;963;42.644;23.336;2024-02-15T07:59:23;10.97;;;7.77;;
1471;SDS011;963;42.644;23.336;2024-02-15T08:01:48;15.40;;;7.80;;
1471;SDS011;963;42.644;23.336;2024-02-15T08:04:17;12.30;;;7.17;;
1471;SDS011;963;42.644;23.336;2024-02-15T08:06:43;11.00;;;6.57;;
1471;SDS011;963;42.644;23.336;2024-02-15T08:09:09;11.60;;;7.97;;
1471;SDS011;963;42.644;23.336;2024-02-15T08:11:39;19.27;;;7.10;;
1471;SDS011;963;42.644;23.336;2024-02-15T08:14:05;11.37;;;7.77;;
1471;SDS011;963;42.644;23.336;2024-02-15T08:16:33;10.10;;;7.00;;
1471;SDS011;963;42.644;23.336;2024-02-15T08:18:59;12.53;;;7.47;;
1471;SDS011;963;42.644;23.336;2024-02-15T08:21:28;9.63;;;7.10;;
1471;SDS011;963;42.644;23.336;2024-02-15T08:26:42;11.13;;;8.20;;
1471;SDS011;963;42.644;23.336;2024-02-15T08:29:08;13.60;;;8.00;;
1471;SDS011;963;42.644;23.336;2024-02-15T08:31:34;10.80;;;7.87;;
1471;SDS011;963;42.644;23.336;2024-02-15T08:34:01;9.80;;;7.07;;
1471;SDS011;963;42.644;23.336;2024-02-15T08:36:27;11.20;;;7.13;;
1471;SDS011;963;42.644;23.336;2024-02-15T08:38:52;14.00;;;8.10;;
1471;SDS011;963;42.644;23.336;2024-02-15T08:41:19;11.03;;;7.33;;
1471;SDS011;963;42.644;23.336;2024-02-15T08:43:46;10.80;;;7.47;;
1471;SDS011;963;42.644;23.336;2024-02-15T08:46:13;10.60;;;7.33;;
1471;SDS011;963;42.644;23.336;2024-02-15T08:48:39;10.30;;;7.60;;
1471;SDS011;963;42.644;23.336;2024-02-15T08:51:05;10.53;;;7.20;;
1471;SDS011;963;42.644;23.336;2024-02-15T08:53:31;9.90;;;7.30;;
1471;SDS011;963;42.644;23.336;2024-02-15T08:55:57;10.87;;;6.37;;
1471;SDS011;963;42.644;23.336;2024-02-15T08:58:23;10.07;;;7.70;;
1471;SDS011;963;42.644;23.336;2024-02-15T09:00:48;11.30;;;7.90;;
1471;SDS011;963;42.644;23.336;2024-02-15T09:03:13;12.97;;;8.07;;
1471;SDS011;963;42.644;23.336;2024-02-15T09:05:39;9.37;;;7.53;;
1471;SDS011;963;42.644;23.336;2024-02-15T09:08:05;12.17;;;7.67;;
1471;SDS011;963;42.644;23.336;2024-02-15T09:10:31;9.90;;;7.80;;
1471;SDS011;963;42.644;23.336;2024-02-15T09:12:56;9.27;;;7.10;;
1471;SDS011;963;42.644;23.336;2024-02-15T09:15:22;14.00;;;8.00;;
1471;SDS011;963;42.644;23.336;2024-02-15T09:17:48;9.00;;;7.13;;
1471;SDS011;963;42.644;23.336;2024-02-15T09:20:14;10.67;;;7.40;;
1471;SDS011;963;42.644;23.336;2024-02-15T09:22:44;11.27;;;7.60;;
1471;SDS011;963;42.644;23.336;2024-02-15T09:25:13;11.43;;;8.03;;
1471;SDS011;963;42.644;23.336;2024-02-15T09:27:39;15.40;;;8.27;;
1471;SDS011;963;42.644;23.336;2024-02-15T09:30:05;9.73;;;8.17;;
1471;SDS011;963;42.644;23.336;2024-02-15T09:32:37;11.47;;;8.00;;
1471;SDS011;963;42.644;23.336;2024-02-15T09:35:04;8.10;;;7.23;;
1471;SDS011;963;42.644;23.336;2024-02-15T09:37:33;12.23;;;8.97;;
1471;SDS011;963;42.644;23.336;2024-02-15T09:39:59;11.70;;;8.20;;
1471;SDS011;963;42.644;23.336;2024-02-15T09:42:30;10.97;;;7.00;;
1471;SDS011;963;42.644;23.336;2024-02-15T09:44:55;8.70;;;7.63;;
1471;SDS011;963;42.644;23.336;2024-02-15T09:47:20;14.07;;;8.93;;
1471;SDS011;963;42.644;23.336;2024-02-15T09:49:48;11.87;;;8.80;;
1471;SDS011;963;42.644;23.336;2024-02-15T09:52:14;8.63;;;6.70;;
1471;SDS011;963;42.644;23.336;2024-02-15T09:54:43;14.20;;;6.50;;
1471;SDS011;963;42.644;23.336;2024-02-15T09:57:09;10.00;;;6.60;;
1471;SDS011;963;42.644;23.336;2024-02-15T09:59:38;10.00;;;7.57;;
1471;SDS011;963;42.644;23.336;2024-02-15T10:02:04;10.10;;;7.77;;
1471;SDS011;963;42.644;23.336;2024-02-15T10:04:39;13.53;;;8.03;;
1471;SDS011;963;42.644;23.336;2024-02-15T10:07:04;10.93;;;8.10;;
1471;SDS011;963;42.644;23.336;2024-02-15T10:09:30;11.40;;;7.33;;
1471;SDS011;963;42.644;23.336;2024-02-15T10:14:25;14.00;;;7.47;;
1471;SDS011;963;42.644;23.336;2024-02-15T10:16:53;7.87;;;7.07;;
1471;SDS011;963;42.644;23.336;2024-02-15T10:19:19;9.30;;;6.77;;
1471;SDS011;963;42.644;23.336;2024-02-15T10:21:50;8.63;;;7.57;;
1471;SDS011;963;42.644;23.336;2024-02-15T10:24:22;9.73;;;6.60;;
1471;SDS011;963;42.644;23.336;2024-02-15T10:26:49;10.37;;;6.80;;
1471;SDS011;963;42.644;23.336;2024-02-15T10:29:15;9.43;;;6.60;;
1471;SDS011;963;42.644;23.336;2024-02-15T10:34:43;10.80;;;6.63;;
1471;SDS011;963;42.644;23.336;2024-02-15T10:37:13;10.20;;;7.37;;
1471;SDS011;963;42.644;23.336;2024-02-15T10:39:43;14.53;;;7.80;;
1471;SDS011;963;42.644;23.336;2024-02-15T10:42:09;10.17;;;7.00;;
1471;SDS011;963;42.644;23.336;2024-02-15T10:44:37;18.10;;;7.83;;
1471;SDS011;963;42.644;23.336;2024-02-15T10:47:03;13.80;;;7.83;;
1471;SDS011;963;42.644;23.336;2024-02-15T10:49:32;10.03;;;6.77;;
1471;SDS011;963;42.644;23.336;2024-02-15T10:51:59;10.00;;;6.67;;
1471;SDS011;963;42.644;23.336;2024-02-15T10:57:12;10.17;;;6.30;;
1471;SDS011;963;42.644;23.336;2024-02-15T10:59:39;11.83;;;7.00;;
1471;SDS011;963;42.644;23.336;2024-02-15T11:04:59;8.17;;;6.97;;
1471;SDS011;963;42.644;23.336;2024-02-15T11:07:29;7.80;;;6.30;;
1471;SDS011;963;42.644;23.336;2024-02-15T11:09:56;9.77;;;6.60;;
1471;SDS011;963;42.644;23.336;2024-02-15T11:12:22;8.70;;;6.90;;
1471;SDS011;963;42.644;23.336;2024-02-15T11:14:49;9.50;;;6.83;;
1471;SDS011;963;42.644;23.336;2024-02-15T11:23:09;7.70;;;5.83;;
1471;SDS011;963;42.644;23.336;2024-02-15T11:25:36;7.87;;;5.90;;
1471;SDS011;963;42.644;23.336;2024-02-15T11:30:58;10.20;;;5.80;;
1471;SDS011;963;42.644;23.336;2024-02-15T11:33:32;7.80;;;5.83;;
1471;SDS011;963;42.644;23.336;2024-02-15T11:36:04;8.63;;;6.17;;
1471;SDS011;963;42.644;23.336;2024-02-15T11:38:30;8.10;;;6.10;;
1471;SDS011;963;42.644;23.336;2024-02-15T11:46:26;8.27;;;6.03;;
1471;SDS011;963;42.644;23.336;2024-02-15T11:48:55;8.30;;;5.93;;
1471;SDS011;963;42.644;23.336;2024-02-15T11:51:25;8.23;;;5.67;;
1471;SDS011;963;42.644;23.336;2024-02-15T11:54:01;6.83;;;6.10;;
1471;SDS011;963;42.644;23.336;2024-02-15T11:56:30;7.73;;;5.47;;
1471;SDS011;963;42.644;23.336;2024-02-15T11:59:04;10.47;;;5.43;;
1471;SDS011;963;42.644;23.336;2024-02-15T12:01:31;9.30;;;5.77;;
1471;SDS011;963;42.644;23.336;2024-02-15T12:04:16;9.70;;;5.70;;
1471;SDS011;963;42.644;23.336;2024-02-15T12:07:00;5.83;;;4.70;;
1471;SDS011;963;42.644;23.336;2024-02-15T12:09:44;6.90;;;5.33;;
1471;SDS011;963;42.644;23.336;2024-02-15T12:12:28;5.70;;;4.80;;
1471;SDS011;963;42.644;23.336;2024-02-15T12:15:12;7.57;;;5.60;;
1471;SDS011;963;42.644;23.336;2024-02-15T12:18:12;7.13;;;6.00;;
1471;SDS011;963;42.644;23.336;2024-02-15T12:20:57;11.33;;;6.80;;
1471;SDS011;963;42.644;23.336;2024-02-15T12:23:23;6.13;;;4.93;;
1471;SDS011;963;42.644;23.336;2024-02-15T12:25:52;7.30;;;5.77;;
1471;SDS011;963;42.644;23.336;2024-02-15T12:28:18;9.93;;;6.67;;
1471;SDS011;963;42.644;23.336;2024-02-15T12:30:43;7.77;;;6.30;;
1471;SDS011;963;42.644;23.336;2024-02-15T12:33:09;8.10;;;5.07;;
1471;SDS011;963;42.644;23.336;2024-02-15T12:35:36;5.43;;;4.60;;
1471;SDS011;963;42.644;23.336;2024-02-15T12:38:03;6.60;;;5.27;;
1471;SDS011;963;42.644;23.336;2024-02-15T12:40:34;8.73;;;5.50;;
1471;SDS011;963;42.644;23.336;2024-02-15T12:43:01;11.70;;;6.37;;
1471;SDS011;963;42.644;23.336;2024-02-15T12:45:30;7.73;;;6.30;;
1471;SDS011;963;42.644;23.336;2024-02-15T12:47:56;10.87;;;6.17;;
1471;SDS011;963;42.644;23.336;2024-02-15T12:50:22;6.33;;;5.17;;
1471;SDS011;963;42.644;23.336;2024-02-15T12:52:53;7.20;;;6.17;;
1471;SDS011;963;42.644;23.336;2024-02-15T12:55:20;6.90;;;5.60;;
1471;SDS011;963;42.644;23.336;2024-02-15T12:57:52;12.00;;;5.70;;
1471;SDS011;963;42.644;23.336;2024-02-15T13:00:19;6.10;;;5.47;;
1471;SDS011;963;42.644;23.336;2024-02-15T13:02:46;7.87;;;5.40;;
1471;SDS011;963;42.644;23.336;2024-02-15T13:05:16;7.60;;;5.73;;
1471;SDS011;963;42.644;23.336;2024-02-15T13:07:43;7.33;;;5.57;;
1471;SDS011;963;42.644;23.336;2024-02-15T13:10:12;6.07;;;4.90;;
1471;SDS011;963;42.644;23.336;2024-02-15T13:12:40;8.87;;;5.90;;
1471;SDS011;963;42.644;23.336;2024-02-15T13:15:06;7.53;;;5.87;;
1471;SDS011;963;42.644;23.336;2024-02-15T13:17:36;8.03;;;5.53;;
1471;SDS011;963;42.644;23.336;2024-02-15T13:20:02;7.67;;;5.80;;
1471;SDS011;963;42.644;23.336;2024-02-15T13:22:32;7.67;;;5.90;;
1471;SDS011;963;42.644;23.336;2024-02-15T13:24:59;12.70;;;6.47;;
1471;SDS011;963;42.644;23.336;2024-02-15T13:27:24;6.10;;;5.40;;
1471;SDS011;963;42.644;23.336;2024-02-15T13:29:50;6.63;;;5.20;;
1471;SDS011;963;42.644;23.336;2024-02-15T13:32:15;7.33;;;5.10;;
1471;SDS011;963;42.644;23.336;2024-02-15T13:34:46;6.80;;;4.87;;
1471;SDS011;963;42.644;23.336;2024-02-15T13:37:16;6.90;;;5.77;;
1471;SDS011;963;42.644;23.336;2024-02-15T13:39:46;7.03;;;5.50;;
1471;SDS011;963;42.644;23.336;2024-02-15T13:42:12;10.47;;;6.07;;
1471;SDS011;963;42.644;23.336;2024-02-15T13:44:38;10.47;;;5.60;;
1471;SDS011;963;42.644;23.336;2024-02-15T13:47:03;7.10;;;4.90;;
1471;SDS011;963;42.644;23.336;2024-02-15T13:49:30;8.77;;;6.87;;
1471;SDS011;963;42.644;23.336;2024-02-15T13:51:57;8.43;;;5.63;;
1471;SDS011;963;42.644;23.336;2024-02-15T13:54:28;5.67;;;5.10;;
1471;SDS011;963;42.644;23.336;2024-02-15T13:56:54;5.90;;;5.30;;
1471;SDS011;963;42.644;23.336;2024-02-15T13:59:20;9.93;;;6.00;;
1471;SDS011;963;42.644;23.336;2024-02-15T14:01:45;14.70;;;5.00;;
1471;SDS011;963;42.644;23.336;2024-02-15T14:04:11;8.63;;;6.47;;
1471;SDS011;963;42.644;23.336;2024-02-15T14:06:37;6.87;;;5.50;;
1471;SDS011;963;42.644;23.336;2024-02-15T14:09:05;10.50;;;5.17;;
1471;SDS011;963;42.644;23.336;2024-02-15T14:11:31;10.80;;;5.37;;
1471;SDS011;963;42.644;23.336;2024-02-15T14:13:56;6.80;;;5.43;;
1471;SDS011;963;42.644;23.336;2024-02-15T14:16:23;8.10;;;5.07;;
1471;SDS011;963;42.644;23.336;2024-02-15T14:18:49;5.70;;;4.67;;
1471;SDS011;963;42.644;23.336;2024-02-15T14:21:16;9.13;;;4.93;;
1471;SDS011;963;42.644;23.336;2024-02-15T14:23:43;5.40;;;4.70;;
1471;SDS011;963;42.644;23.336;2024-02-15T14:26:09;13.03;;;5.00;;
1471;SDS011;963;42.644;23.336;2024-02-15T14:28:35;4.97;;;4.20;;
1471;SDS011;963;42.644;23.336;2024-02-15T14:31:00;7.77;;;6.00;;
1471;SDS011;963;42.644;23.336;2024-02-15T14:33:44;6.27;;;5.13;;
1471;SDS011;963;42.644;23.336;2024-02-15T14:36:10;6.83;;;4.90;;
1471;SDS011;963;42.644;23.336;2024-02-15T14:38:36;5.93;;;4.90;;
1471;SDS011;963;42.644;23.336;2024-02-15T14:41:02;5.57;;;4.87;;
1471;SDS011;963;42.644;23.336;2024-02-15T14:43:31;7.30;;;5.33;;
1471;SDS011;963;42.644;23.336;2024-02-15T14:45:56;6.80;;;5.10;;
1471;SDS011;963;42.644;23.336;2024-02-15T14:48:22;7.60;;;5.70;;
1471;SDS011;963;42.644;23.336;2024-02-15T14:50:49;8.33;;;5.80;;
1471;SDS011;963;42.644;23.336;2024-02-15T14:53:15;10.57;;;5.47;;
1471;SDS011;963;42.644;23.336;2024-02-15T14:55:43;10.97;;;6.47;;
1471;SDS011;963;42.644;23.336;2024-02-15T14:58:11;9.33;;;6.07;;
1471;SDS011;963;42.644;23.336;2024-02-15T15:00:38;9.33;;;5.40;;
1471;SDS011;963;42.644;23.336;2024-02-15T15:03:06;6.30;;;5.40;;
1471;SDS011;963;42.644;23.336;2024-02-15T15:05:32;7.60;;;6.50;;
1471;SDS011;963;42.644;23.336;2024-02-15T15:08:16;16.10;;;5.77;;
1471;SDS011;963;42.644;23.336;2024-02-15T15:11:00;7.73;;;4.80;;
1471;SDS011;963;42.644;23.336;2024-02-15T15:13:44;8.17;;;6.03;;
1471;SDS011;963;42.644;23.336;2024-02-15T15:16:09;10.30;;;5.60;;
1471;SDS011;963;42.644;23.336;2024-02-15T15:18:39;8.40;;;6.30;;
1471;SDS011;963;42.644;23.336;2024-02-15T15:21:05;9.93;;;6.00;;
1471;SDS011;963;42.644;23.336;2024-02-15T15:23:30;9.47;;;6.00;;
1471;SDS011;963;42.644;23.336;2024-02-15T15:25:59;8.10;;;6.10;;
1471;SDS011;963;42.644;23.336;2024-02-15T15:28:26;7.53;;;5.20;;
1471;SDS011;963;42.644;23.336;2024-02-15T15:30:52;9.30;;;5.40;;
1471;SDS011;963;42.644;23.336;2024-02-15T15:33:17;11.83;;;6.37;;
1471;SDS011;963;42.644;23.336;2024-02-15T15:35:43;8.33;;;6.03;;
1471;SDS011;963;42.644;23.336;2024-02-15T15:38:09;15.80;;;6.80;;
1471;SDS011;963;42.644;23.336;2024-02-15T15:40:38;8.90;;;5.80;;